Haruka — JD3824 — position and weather

sailwx.info

Track history (hours):
 
Tides and Currents Weather Stations Pressure Air Temp Water Temp Dewpoint Dewpoint Depression Visibility Wind Speed Wind Dir Waves Ship Positions

Haruka

Last reported at 2018-Feb-20 18:07 UTC. Time now 2018-Feb-21 17:28 UTC.
Position N 34°35' E 138°28'.

Length 76 m; draft 4.6 m.

Type: Cargo ship. MMSI: 431006123.

Date/timePositionNaut miles runAvg speedWind from/ knotsBaromVisibWave heightAir tempDewpointWater temp
2018-Feb-20 18:07N 34°35' E 138°28'3 7.8
2018-Feb-20 17:45N 34°36' E 138°31'3 7.9
2018-Feb-20 17:23N 34°37' E 138°34'17 7.2
2018-Feb-20 15:01N 34°35' E 138°55'1 7.5
2018-Feb-20 14:56N 34°36' E 138°56'7 9.9
2018-Feb-20 14:14N 34°40' E 139°02'312.8
2018-Feb-20 14:00N 34°43' E 139°04'2211.9
2018-Feb-20 12:08N 34°60' E 139°21'511.3
2018-Feb-20 11:40N 35°02' E 139°27'311.1
2018-Feb-20 11:22N 35°03' E 139°31'411.7
2018-Feb-20 11:00N 35°05' E 139°36'611.9
2018-Feb-20 10:30N 35°07' E 139°42'612.1
2018-Feb-20 10:00N 35°12' E 139°46'611.1
2018-Feb-20 09:31N 35°18' E 139°44'611.4
2018-Feb-20 09:01N 35°23' E 139°42'611.3
2018-Feb-20 08:30N 35°27' E 139°48'611.8
2018-Feb-20 07:59N 35°31' E 139°54'612.1
2018-Feb-20 07:30N 35°34' E 139°60'510.6
2018-Feb-20 07:00N 35°36' E 140°05'0 0.2
2018-Feb-20 06:30N 35°37' E 140°05'0 0.1
2018-Feb-20 06:00N 35°37' E 140°05'0 0.0
2018-Feb-20 05:30N 35°37' E 140°05'0 0.0
2018-Feb-20 05:00N 35°37' E 140°05'0 0.0
2018-Feb-20 04:30N 35°37' E 140°05'0 0.0
2018-Feb-20 04:00N 35°37' E 140°05'0 0.0
2018-Feb-20 03:30N 35°37' E 140°05'0 0.0
2018-Feb-20 03:00N 35°37' E 140°05'0 0.0
2018-Feb-20 02:27N 35°37' E 140°05'0 0.0
2018-Feb-20 01:57N 35°37' E 140°05'0 0.0
2018-Feb-20 01:30N 35°37' E 140°05'0 0.0
2018-Feb-20 01:00N 35°37' E 140°05'0 0.0
2018-Feb-20 00:30N 35°37' E 140°05'0 0.0
2018-Feb-20 00:00N 35°37' E 140°05'0 0.0
2018-Feb-19 23:30N 35°37' E 140°05'0 0.0
2018-Feb-19 23:00N 35°37' E 140°05'0 0.1
2018-Feb-19 22:30N 35°37' E 140°05'0 0.1
2018-Feb-19 22:00N 35°37' E 140°05'0 0.0
2018-Feb-19 21:24N 35°37' E 140°05'0 0.0
2018-Feb-19 21:00N 35°37' E 140°05'0 0.1
2018-Feb-19 20:27N 35°37' E 140°05'0 0.1
2018-Feb-19 20:00N 35°37' E 140°05'0 0.0
2018-Feb-19 19:24N 35°37' E 140°05'0 0.1
2018-Feb-19 19:00N 35°37' E 140°05'0 0.1
2018-Feb-19 18:30N 35°37' E 140°05'0 0.0
2018-Feb-19 18:00N 35°37' E 140°05'0 0.0
2018-Feb-19 17:30N 35°37' E 140°05'0 0.0
2018-Feb-19 17:00N 35°37' E 140°05'0 0.0
2018-Feb-19 16:30N 35°37' E 140°05'0 0.0
2018-Feb-19 16:00N 35°37' E 140°05'0 0.0
2018-Feb-19 15:30N 35°37' E 140°05'0 0.0
2018-Feb-19 15:00N 35°37' E 140°05'0 0.0
2018-Feb-19 14:30N 35°37' E 140°05'0 0.0
2018-Feb-19 14:00N 35°37' E 140°05'0 0.0
2018-Feb-19 13:30N 35°37' E 140°05'0 0.0
2018-Feb-19 12:57N 35°37' E 140°05'0 0.0
2018-Feb-19 12:30N 35°37' E 140°05'0 0.0
2018-Feb-19 12:00N 35°37' E 140°05'0 0.0
2018-Feb-19 11:30N 35°37' E 140°05'0 0.1
2018-Feb-19 11:00N 35°37' E 140°05'0 0.1
2018-Feb-19 10:30N 35°37' E 140°05'0 0.0
2018-Feb-19 10:00N 35°37' E 140°05'0 0.0
2018-Feb-19 09:30N 35°37' E 140°05'0 0.0
2018-Feb-19 09:00N 35°37' E 140°05'0 0.0
2018-Feb-19 08:24N 35°37' E 140°05'0 0.0
2018-Feb-19 08:00N 35°37' E 140°05'0 0.0
2018-Feb-19 07:30N 35°37' E 140°05'0 0.0
2018-Feb-19 07:00N 35°37' E 140°05'1 1.7
2018-Feb-19 06:31N 35°36' E 140°05'2 3.6
2018-Feb-19 05:59N 35°35' E 140°03'0 0.0
2018-Feb-19 05:29N 35°35' E 140°03'0 0.0
2018-Feb-19 04:59N 35°35' E 140°03'0 0.0
2018-Feb-19 04:29N 35°35' E 140°03'0 0.1
2018-Feb-19 04:00N 35°35' E 140°03'4 7.5
2018-Feb-19 03:30N 35°33' E 139°59'611.9
2018-Feb-19 03:00N 35°30' E 139°53'611.7
2018-Feb-19 02:30N 35°26' E 139°48'611.3
2018-Feb-19 02:00N 35°21' E 139°45'510.6
2018-Feb-19 01:30N 35°16' E 139°47'611.0
2018-Feb-19 01:00N 35°10' E 139°46'611.1
2018-Feb-19 00:30N 35°06' E 139°41'612.0
2018-Feb-19 00:00N 35°03' E 139°35'712.6
2018-Feb-18 23:29N 34°59' E 139°28'812.7
2018-Feb-18 22:53N 34°55' E 139°21'1012.2
2018-Feb-18 22:05N 34°48' E 139°12'111.7
2018-Feb-18 22:00N 34°47' E 139°12'611.2
2018-Feb-18 21:27N 34°42' E 139°07'510.9
2018-Feb-18 20:59N 34°39' E 139°03'510.6
2018-Feb-18 20:28N 34°36' E 138°57'511.2
2018-Feb-18 19:59N 34°34' E 138°51'612.2
2018-Feb-18 19:30N 34°33' E 138°44'612.1
2018-Feb-18 18:59N 34°31' E 138°37'712.1
2018-Feb-18 18:23N 34°31' E 138°28'  
Track history (hours):
 
Tides and Currents Weather Stations Pressure Air Temp Water Temp Dewpoint Dewpoint Depression Visibility Wind Speed Wind Dir Waves Ship Positions

Haruka

Last reported at 2018-Feb-20 18:07 UTC. Time now 2018-Feb-21 17:28 UTC.
Position N 34°35' E 138°28'.

Length 76 m; draft 4.6 m.

Type: Cargo ship. MMSI: 431006123.

Date/timePositionNaut miles runAvg speedWind from/ knotsBaromVisibWave heightAir tempDewpointWater temp
2018-Feb-20 18:07N 34°35' E 138°28'3 7.8
2018-Feb-20 17:45N 34°36' E 138°31'3 7.9
2018-Feb-20 17:23N 34°37' E 138°34'17 7.2
2018-Feb-20 15:01N 34°35' E 138°55'1 7.5
2018-Feb-20 14:56N 34°36' E 138°56'7 9.9
2018-Feb-20 14:14N 34°40' E 139°02'312.8
2018-Feb-20 14:00N 34°43' E 139°04'2211.9
2018-Feb-20 12:08N 34°60' E 139°21'511.3
2018-Feb-20 11:40N 35°02' E 139°27'311.1
2018-Feb-20 11:22N 35°03' E 139°31'411.7
2018-Feb-20 11:00N 35°05' E 139°36'611.9
2018-Feb-20 10:30N 35°07' E 139°42'612.1
2018-Feb-20 10:00N 35°12' E 139°46'611.1
2018-Feb-20 09:31N 35°18' E 139°44'611.4
2018-Feb-20 09:01N 35°23' E 139°42'611.3
2018-Feb-20 08:30N 35°27' E 139°48'611.8
2018-Feb-20 07:59N 35°31' E 139°54'612.1
2018-Feb-20 07:30N 35°34' E 139°60'510.6
2018-Feb-20 07:00N 35°36' E 140°05'0 0.2
2018-Feb-20 06:30N 35°37' E 140°05'0 0.1
2018-Feb-20 06:00N 35°37' E 140°05'0 0.0
2018-Feb-20 05:30N 35°37' E 140°05'0 0.0
2018-Feb-20 05:00N 35°37' E 140°05'0 0.0
2018-Feb-20 04:30N 35°37' E 140°05'0 0.0
2018-Feb-20 04:00N 35°37' E 140°05'0 0.0
2018-Feb-20 03:30N 35°37' E 140°05'0 0.0
2018-Feb-20 03:00N 35°37' E 140°05'0 0.0
2018-Feb-20 02:27N 35°37' E 140°05'0 0.0
2018-Feb-20 01:57N 35°37' E 140°05'0 0.0
2018-Feb-20 01:30N 35°37' E 140°05'0 0.0
2018-Feb-20 01:00N 35°37' E 140°05'0 0.0
2018-Feb-20 00:30N 35°37' E 140°05'0 0.0
2018-Feb-20 00:00N 35°37' E 140°05'0 0.0
2018-Feb-19 23:30N 35°37' E 140°05'0 0.0
2018-Feb-19 23:00N 35°37' E 140°05'0 0.1
2018-Feb-19 22:30N 35°37' E 140°05'0 0.1
2018-Feb-19 22:00N 35°37' E 140°05'0 0.0
2018-Feb-19 21:24N 35°37' E 140°05'0 0.0
2018-Feb-19 21:00N 35°37' E 140°05'0 0.1
2018-Feb-19 20:27N 35°37' E 140°05'0 0.1
2018-Feb-19 20:00N 35°37' E 140°05'0 0.0
2018-Feb-19 19:24N 35°37' E 140°05'0 0.1
2018-Feb-19 19:00N 35°37' E 140°05'0 0.1
2018-Feb-19 18:30N 35°37' E 140°05'0 0.0
2018-Feb-19 18:00N 35°37' E 140°05'0 0.0
2018-Feb-19 17:30N 35°37' E 140°05'0 0.0
2018-Feb-19 17:00N 35°37' E 140°05'0 0.0
2018-Feb-19 16:30N 35°37' E 140°05'0 0.0
2018-Feb-19 16:00N 35°37' E 140°05'0 0.0
2018-Feb-19 15:30N 35°37' E 140°05'0 0.0
2018-Feb-19 15:00N 35°37' E 140°05'0 0.0
2018-Feb-19 14:30N 35°37' E 140°05'0 0.0
2018-Feb-19 14:00N 35°37' E 140°05'0 0.0
2018-Feb-19 13:30N 35°37' E 140°05'0 0.0
2018-Feb-19 12:57N 35°37' E 140°05'0 0.0
2018-Feb-19 12:30N 35°37' E 140°05'0 0.0
2018-Feb-19 12:00N 35°37' E 140°05'0 0.0
2018-Feb-19 11:30N 35°37' E 140°05'0 0.1
2018-Feb-19 11:00N 35°37' E 140°05'0 0.1
2018-Feb-19 10:30N 35°37' E 140°05'0 0.0
2018-Feb-19 10:00N 35°37' E 140°05'0 0.0
2018-Feb-19 09:30N 35°37' E 140°05'0 0.0
2018-Feb-19 09:00N 35°37' E 140°05'0 0.0
2018-Feb-19 08:24N 35°37' E 140°05'0 0.0
2018-Feb-19 08:00N 35°37' E 140°05'0 0.0
2018-Feb-19 07:30N 35°37' E 140°05'0 0.0
2018-Feb-19 07:00N 35°37' E 140°05'1 1.7
2018-Feb-19 06:31N 35°36' E 140°05'2 3.6
2018-Feb-19 05:59N 35°35' E 140°03'0 0.0
2018-Feb-19 05:29N 35°35' E 140°03'0 0.0
2018-Feb-19 04:59N 35°35' E 140°03'0 0.0
2018-Feb-19 04:29N 35°35' E 140°03'0 0.1
2018-Feb-19 04:00N 35°35' E 140°03'4 7.5
2018-Feb-19 03:30N 35°33' E 139°59'611.9
2018-Feb-19 03:00N 35°30' E 139°53'611.7
2018-Feb-19 02:30N 35°26' E 139°48'611.3
2018-Feb-19 02:00N 35°21' E 139°45'510.6
2018-Feb-19 01:30N 35°16' E 139°47'611.0
2018-Feb-19 01:00N 35°10' E 139°46'611.1
2018-Feb-19 00:30N 35°06' E 139°41'612.0
2018-Feb-19 00:00N 35°03' E 139°35'712.6
2018-Feb-18 23:29N 34°59' E 139°28'812.7
2018-Feb-18 22:53N 34°55' E 139°21'1012.2
2018-Feb-18 22:05N 34°48' E 139°12'111.7
2018-Feb-18 22:00N 34°47' E 139°12'611.2
2018-Feb-18 21:27N 34°42' E 139°07'510.9
2018-Feb-18 20:59N 34°39' E 139°03'510.6
2018-Feb-18 20:28N 34°36' E 138°57'511.2
2018-Feb-18 19:59N 34°34' E 138°51'612.2
2018-Feb-18 19:30N 34°33' E 138°44'612.1
2018-Feb-18 18:59N 34°31' E 138°37'712.1
2018-Feb-18 18:23N 34°31' E 138°28'  

Dump ship's entire track history